Aérodrome :
LOGIN :

S'inscrire | Disclaimer

   EN    FR    IT 

 










Légende :    VFR   VFR Marginal   IFR   IFR Intensif   IFR Très Intensif
Visi : 
Plafond : 
>= 8 km
>= 3000ft
5 à 8 km
1000 à 3000 ft
1500m à 5 km
500 à 1000 ft
800 à 1500m
200 à 500 ft
< 800m
< 200 ft
Symboles :   Orages  Brouillard  Fortes neiges  Fortes précipitations  Vent > 20 kt
SIGMETs :   Divers  Orages  Givrage  Turbulence  Onde Orograph.  Cendres Volcan.






- Altitude de l'aérodrome : 47 ft
- Code IATA : BDS


LIBR - Casale Arpt. Brindisi

DERNIER METAR :
  • 181750Z 10002KT 9999 FEW030 20/17 Q1018

METARs EXPIRÉS :
  • 181720Z VRB01KT 9999 FEW030 20/17 Q1018
  • 181650Z VRB01KT 9999 FEW030 20/16 Q1018
  • 181620Z 36002KT 9999 FEW030 20/17 Q1017
  • 181550Z 01002KT 9999 FEW030 21/17 Q1017
  • 181520Z 04004KT 9999 FEW030 21/17 Q1017

TAF TAF LIBR
Valide du 18 à 18h jusqu'au 19 à 18h UTC


181700Z 1818/1918 VRB05KT 9999 SCT030
TEMPO 1822/1906 4000 BR
BECMG 1910/1912 11010KT



MET'MAP, la Météo Aéronautique d'un coup d'oeil ! - Copyright ORBIFLY Décembre 2007 - Disclaimer

ORBIFLY MET'MAP TEAM :

Programmation & Développement : Alexandra Zaïnal
Conception & Développement : Baudouin d'Aumeries
Co-Programmation & Développement : Marc-Olivier Méhu
Soutien technique & logistique : Manuel Goepfert

Contact : metmap@orbifly.com




SOURCES & CREDITS :

   NOAA